createdAt,value
2023-02-01T01:06:27.138Z,99207.09
2023-02-01T01:09:36.257Z,99211.96
2023-02-01T01:13:03.129Z,99211.23
2023-02-01T01:16:44.072Z,99219.60
2023-02-01T01:20:37.705Z,99220.48
2023-02-01T01:24:12.527Z,99224.58
2023-02-01T01:27:50.162Z,99223.23
2023-02-01T01:31:46.565Z,99220.80
2023-02-01T01:35:32.804Z,99221.57
2023-02-01T01:39:45.662Z,99220.10
2023-02-01T01:43:37.704Z,99209.23
2023-02-01T01:47:39.947Z,99206.61
2023-02-01T01:52:03.464Z,99205.75
2023-02-01T02:02:56.785Z,99198.77
2023-02-01T02:18:58.437Z,99198.89
2023-02-01T02:22:40.362Z,99196.89
2023-02-01T02:26:59.107Z,99186.51
2023-02-01T02:30:45.879Z,99188.35
2023-02-01T02:39:21.579Z,99181.48
2023-02-01T02:43:30.710Z,99179.23
2023-02-01T02:47:46.637Z,99168.84
2023-02-01T02:52:03.738Z,99166.54
2023-02-01T02:56:15.028Z,99159.52
2023-02-01T03:00:17.567Z,99158.54
2023-02-01T03:04:26.097Z,99159.47
2023-02-01T03:08:31.339Z,99156.05
2023-02-01T03:12:33.376Z,99158.85
2023-02-01T03:16:30.187Z,99152.90
2023-02-01T03:20:18.048Z,99145.52
2023-02-01T03:24:05.992Z,99148.40
2023-02-01T03:28:02.297Z,99150.17
2023-02-01T03:31:58.475Z,99162.20
2023-02-01T03:36:17.647Z,99146.09
2023-02-01T03:40:21.647Z,99152.52
2023-02-01T03:44:25.522Z,99153.30
2023-02-01T03:48:06.577Z,99144.29
2023-02-01T03:51:52.491Z,99142.56
2023-02-01T03:55:36.682Z,99157.41
2023-02-01T04:04:10.199Z,99149.36
2023-02-01T04:13:08.819Z,99143.30
2023-02-01T04:16:35.726Z,99142.24
2023-02-01T04:25:25.124Z,99127.45
2023-02-01T04:29:10.042Z,99122.39
2023-02-01T04:37:53.745Z,99116.81
2023-02-01T04:52:32.917Z,99102.52
2023-02-01T04:56:29.406Z,99101.52
2023-02-01T05:00:17.660Z,99094.77
2023-02-01T05:04:18.236Z,99092.11
2023-02-01T05:08:07.250Z,99090.73
2023-02-01T05:12:09.717Z,99092.23
2023-02-01T05:15:52.818Z,99095.65
2023-02-01T05:24:45.258Z,99092.45
2023-02-01T05:28:34.413Z,99091.58
2023-02-01T05:32:34.683Z,99093.15
2023-02-01T05:36:25.166Z,99094.80
2023-02-01T05:40:14.427Z,99085.70
2023-02-01T05:44:10.874Z,99084.69
2023-02-01T05:47:43.134Z,99075.17
2023-02-01T05:51:24.632Z,99069.15
2023-02-01T05:55:24.777Z,99082.02
2023-02-01T05:59:04.042Z,99073.50
2023-02-01T06:03:07.676Z,99064.14
2023-02-01T06:07:00.241Z,99064.30
2023-02-01T06:11:03.812Z,99070.41
2023-02-01T06:14:53.217Z,99076.64
2023-02-01T06:18:56.810Z,99067.48
2023-02-01T06:22:44.996Z,99067.17
2023-02-01T06:26:31.551Z,99051.80
2023-02-01T06:30:29.933Z,99079.20
2023-02-01T06:34:09.226Z,99068.23
2023-02-01T06:37:38.590Z,99064.20
2023-02-01T06:41:29.470Z,99054.39
2023-02-01T06:45:08.860Z,99061.98
2023-02-01T06:49:12.480Z,99059.92
2023-02-01T06:52:44.355Z,99062.96
2023-02-01T06:56:53.750Z,99059.82
2023-02-01T07:00:56.309Z,99052.46
2023-02-01T07:04:48.247Z,99051.81
2023-02-01T07:08:44.723Z,99060.78
2023-02-01T07:12:37.224Z,99058.45
2023-02-01T07:16:41.918Z,99056.83
2023-02-01T07:20:44.760Z,99059.77
2023-02-01T07:24:17.597Z,99068.28
2023-02-01T07:27:50.157Z,99057.98
2023-02-01T07:31:19.924Z,99056.35
2023-02-01T07:35:15.311Z,99067.55
2023-02-01T07:38:57.109Z,99058.00
2023-02-01T07:42:51.955Z,99067.80
2023-02-01T07:46:39.911Z,99059.73
2023-02-01T07:50:33.554Z,99049.40
2023-02-01T07:54:48.212Z,99044.25
2023-02-01T07:58:23.961Z,99039.70
2023-02-01T08:02:20.181Z,99036.17
2023-02-01T08:06:24.077Z,99031.03
2023-02-01T08:10:02.557Z,99022.84
2023-02-01T08:14:04.928Z,99014.02
2023-02-01T08:17:40.677Z,99018.45
2023-02-01T08:20:56.502Z,99030.46
2023-02-01T08:25:00.781Z,99030.48
2023-02-01T08:28:55.677Z,99024.95
2023-02-01T08:32:59.536Z,99028.16
2023-02-01T08:36:53.021Z,99034.89
2023-02-01T08:40:15.565Z,99016.35
2023-02-01T08:44:19.773Z,99013.64
2023-02-01T08:48:13.646Z,99006.16
2023-02-01T08:51:35.204Z,99006.02
2023-02-01T08:55:29.550Z,99003.58
2023-02-01T08:59:23.164Z,98997.48
2023-02-01T09:03:26.908Z,98989.70
2023-02-01T09:07:02.830Z,98987.89
2023-02-01T09:10:23.501Z,98980.71
2023-02-01T09:14:20.325Z,98976.66
2023-02-01T09:17:44.146Z,98970.66
2023-02-01T09:21:40.466Z,98969.88
2023-02-01T09:25:34.278Z,98955.58
2023-02-01T09:29:14.201Z,98949.13
2023-02-01T09:33:16.544Z,98946.23
2023-02-01T09:37:05.219Z,98943.47
2023-02-01T09:41:04.309Z,98936.00
2023-02-01T09:45:23.695Z,98939.86
2023-02-01T09:49:06.943Z,98942.78
2023-02-01T09:52:28.783Z,98944.94
2023-02-01T09:56:32.412Z,98945.73
2023-02-01T10:00:19.352Z,98944.57
2023-02-01T10:04:09.721Z,98942.87
2023-02-01T10:08:26.849Z,98935.80
2023-02-01T10:12:46.665Z,98934.77
2023-02-01T10:16:47.857Z,98929.60
2023-02-01T10:20:33.682Z,98926.73
2023-02-01T10:24:17.802Z,98919.96
2023-02-01T10:28:22.018Z,98922.05
2023-02-01T10:32:05.681Z,98923.88
2023-02-01T10:35:50.965Z,98914.17
2023-02-01T10:39:15.635Z,98919.98
2023-02-01T10:42:35.774Z,98913.79
2023-02-01T10:46:38.399Z,98928.77
2023-02-01T10:50:44.139Z,98919.77
2023-02-01T10:54:39.663Z,98931.20
2023-02-01T10:59:01.444Z,98938.22
2023-02-01T11:02:57.790Z,98943.66
2023-02-01T11:07:06.149Z,98948.91
2023-02-01T11:10:59.154Z,98956.31
2023-02-01T11:14:55.238Z,98951.52
2023-02-01T11:18:58.353Z,98962.33
2023-02-01T11:22:30.732Z,98978.94
2023-02-01T11:25:39.938Z,98975.60
2023-02-01T11:29:29.793Z,98993.91
2023-02-01T11:33:09.642Z,98979.98
2023-02-01T11:37:08.643Z,98972.70
2023-02-01T11:40:51.133Z,98979.63
2023-02-01T11:44:25.830Z,98965.45
2023-02-01T11:48:29.434Z,98986.95
2023-02-01T11:52:27.268Z,98973.23
2023-02-01T11:56:42.671Z,98961.09
2023-02-01T12:01:08.273Z,98966.65
2023-02-01T12:04:53.293Z,98964.94
2023-02-01T12:09:01.888Z,98957.28
2023-02-01T12:13:10.029Z,98971.73
2023-02-01T12:17:13.702Z,98971.38
2023-02-01T12:21:31.240Z,98962.22
2023-02-01T12:25:14.622Z,98973.80
2023-02-01T12:29:20.936Z,98960.73
2023-02-01T12:33:09.823Z,98976.35
2023-02-01T12:37:20.805Z,98980.16
2023-02-01T12:41:21.908Z,98978.52
2023-02-01T12:45:28.093Z,98978.43
2023-02-01T12:49:30.729Z,98975.36
2023-02-01T12:53:31.119Z,98979.90
2023-02-01T12:57:24.869Z,98978.31
2023-02-01T13:01:32.939Z,98979.30
2023-02-01T13:05:22.949Z,98988.52
2023-02-01T13:09:13.759Z,98993.60
2023-02-01T13:13:26.627Z,98997.16
2023-02-01T13:17:14.723Z,98990.85
2023-02-01T13:20:49.664Z,98984.06
2023-02-01T13:24:34.927Z,98977.09
2023-02-01T13:28:02.329Z,98971.80
2023-02-01T13:32:00.531Z,98962.02
2023-02-01T13:36:13.596Z,98962.95
2023-02-01T13:40:34.597Z,98956.01
2023-02-01T13:44:10.193Z,98951.67
2023-02-01T13:47:28.048Z,98947.89
2023-02-01T13:51:07.454Z,98950.96
2023-02-01T13:55:02.912Z,98945.67
2023-02-01T13:59:16.732Z,98941.33
2023-02-01T14:03:19.536Z,98945.87
2023-02-01T14:06:56.928Z,98953.55
2023-02-01T14:11:00.299Z,98921.39
2023-02-01T14:14:58.803Z,98924.48
2023-02-01T14:19:17.611Z,98918.66
2023-02-01T14:23:24.220Z,98916.35
2023-02-01T14:27:06.681Z,98918.34
2023-02-01T14:30:39.566Z,98926.41
2023-02-01T14:34:00.234Z,98920.96
2023-02-01T14:37:58.545Z,98915.35
2023-02-01T14:41:50.603Z,98920.34
2023-02-01T14:46:00.298Z,98921.07
2023-02-01T14:49:54.257Z,98925.21
2023-02-01T14:54:04.280Z,98930.83
2023-02-01T14:57:37.084Z,98943.23
2023-02-01T15:01:31.385Z,98934.80
2023-02-01T15:05:23.577Z,98922.89
2023-02-01T15:09:17.141Z,98921.80
2023-02-01T15:12:52.447Z,98925.06
2023-02-01T15:16:38.643Z,98923.33
2023-02-01T15:20:22.225Z,98922.95
2023-02-01T15:24:20.513Z,98905.95
2023-02-01T15:27:59.630Z,98886.89
2023-02-01T15:31:17.082Z,98959.42
2023-02-01T15:35:25.387Z,98956.25
2023-02-01T15:39:20.991Z,98962.29
2023-02-01T15:43:08.437Z,98961.73
2023-02-01T15:46:42.734Z,98950.80
2023-02-01T15:49:55.961Z,98941.11
2023-02-01T15:53:55.033Z,98932.39
2023-02-01T15:57:16.000Z,98916.93
2023-02-01T16:00:44.888Z,98906.86
2023-02-01T16:04:33.321Z,98898.63
2023-02-01T16:08:20.019Z,98891.86
2023-02-01T16:12:23.629Z,98890.88
2023-02-01T16:16:08.014Z,98883.73
2023-02-01T16:19:35.226Z,98875.80
2023-02-01T16:22:52.010Z,98868.39
2023-02-01T16:25:55.867Z,98860.59
2023-02-01T16:29:17.348Z,98856.27
2023-02-01T16:33:11.331Z,98849.38
2023-02-01T16:36:56.667Z,98846.30
2023-02-01T16:41:00.360Z,98840.89
2023-02-01T16:44:45.825Z,98839.63
2023-02-01T16:48:40.528Z,98838.70
2023-02-01T16:52:34.215Z,98834.94
2023-02-01T16:56:21.212Z,98838.10
2023-02-01T17:00:25.901Z,98833.40
2023-02-01T17:04:29.452Z,98828.51
2023-02-01T17:08:13.316Z,98831.52
2023-02-01T17:11:56.826Z,98820.52
2023-02-01T17:15:39.564Z,98809.67
2023-02-01T17:19:18.090Z,98806.70
2023-02-01T17:22:54.827Z,98794.52
2023-02-01T17:26:50.090Z,98783.92
2023-02-01T17:30:40.544Z,98780.70
2023-02-01T17:34:25.804Z,98772.42
2023-02-01T17:38:32.479Z,98769.39
2023-02-01T17:42:38.907Z,98758.34
2023-02-01T17:45:52.787Z,98755.23
2023-02-01T17:49:56.924Z,98754.58
2023-02-01T17:53:35.618Z,98747.92
2023-02-01T17:56:40.030Z,98737.28
2023-02-01T17:59:43.483Z,98737.23
2023-02-01T18:02:46.466Z,98719.30
2023-02-01T18:05:52.680Z,98719.16
2023-02-01T18:08:58.972Z,98716.77
2023-02-01T18:12:26.596Z,98727.95
2023-02-01T18:15:31.607Z,98726.80
2023-02-01T18:18:40.021Z,98725.56
2023-02-01T18:22:26.197Z,98731.66
2023-02-01T18:26:02.316Z,98732.86
2023-02-01T18:30:02.410Z,98745.34
2023-02-01T18:33:48.941Z,98759.70
2023-02-01T18:37:22.077Z,98778.23
2023-02-01T18:40:36.219Z,98800.25
2023-02-01T18:44:22.399Z,98807.28
2023-02-01T18:47:59.724Z,98803.52
2023-02-01T18:51:47.816Z,98808.52
2023-02-01T18:55:32.272Z,98820.73
2023-02-01T18:59:18.068Z,98828.05
2023-02-01T19:02:59.483Z,98830.33
2023-02-01T19:06:32.254Z,98849.55
2023-02-01T19:10:17.533Z,98852.89
2023-02-01T19:13:58.779Z,98846.58
2023-02-01T19:17:51.907Z,98845.42
2023-02-01T19:21:35.433Z,98854.39
2023-02-01T19:25:39.601Z,98860.41
2023-02-01T19:29:37.188Z,98861.05
2023-02-01T21:39:56.534Z,98935.98
2023-02-01T21:44:00.160Z,98951.93
2023-02-01T21:47:57.401Z,98948.02
2023-02-01T21:51:48.503Z,98956.86
2023-02-01T21:55:55.295Z,98963.08
2023-02-01T21:59:50.890Z,98953.47
2023-02-01T22:03:29.521Z,98952.56
2023-02-01T22:06:45.977Z,98950.63
2023-02-01T22:10:35.375Z,98948.95
2023-02-01T22:13:41.245Z,98948.73
2023-02-01T22:17:11.246Z,98953.91
2023-02-01T22:21:14.989Z,98959.60
2023-02-01T22:25:08.677Z,98958.17
2023-02-01T22:28:42.387Z,98960.45
2023-02-01T22:32:23.336Z,98954.16
2023-02-01T22:35:54.097Z,98953.28
2023-02-01T22:39:46.829Z,98955.48
2023-02-01T22:43:50.395Z,98980.30
2023-02-01T22:47:52.948Z,98967.58
2023-02-01T22:51:33.493Z,98960.88
2023-02-01T22:54:57.850Z,98960.73
2023-02-01T22:58:41.431Z,98965.64
2023-02-01T23:02:45.102Z,98960.64
2023-02-01T23:06:18.925Z,98972.66
2023-02-01T23:10:03.614Z,98967.87
2023-02-01T23:13:56.326Z,98959.93
2023-02-01T23:17:07.640Z,98942.98
2023-02-01T23:21:02.361Z,98951.42
2023-02-01T23:25:06.145Z,98944.52
2023-02-01T23:28:57.863Z,98944.73
2023-02-01T23:32:18.589Z,98947.45
2023-02-01T23:35:39.798Z,98933.80
2023-02-01T23:38:58.842Z,98936.30
2023-02-01T23:43:03.037Z,98935.17
2023-02-01T23:46:59.363Z,98929.63
2023-02-01T23:51:03.454Z,98926.23
2023-02-01T23:54:21.215Z,98929.19
2023-02-01T23:57:29.911Z,98945.47
